Time;durP1;ratioP1;P1;durP2;ratioP2;P2;SDS_P1;SDS_P2;PMS_P1;PMS_P2;Temp;Humidity;BMP_temperature;BMP_pressure;BME280_temperature;BME280_humidity;BME280_pressure;Samples;Min_cycle;Max_cycle;Signal;HPM_P1;HPM_P2
2023/04/18 00:02:09;;;;;;;6.93;6.22;;;;;;;;;;5074223;28;20213;-68
2023/04/18 00:04:36;;;;;;;6.88;6.20;;;;;;;;;;5074613;28;20328;-68
2023/04/18 00:07:03;;;;;;;6.90;6.20;;;;;;;;;;5074508;28;20194;-68
2023/04/18 00:09:30;;;;;;;7.50;6.80;;;;;;;;;;5074554;28;20194;-68
2023/04/18 00:11:58;;;;;;;8.93;6.75;;;;;;;;;;5074478;28;20194;-68
2023/04/18 00:14:28;;;;;;;6.90;6.30;;;;;;;;;;5074715;28;20194;-68
2023/04/18 00:16:56;;;;;;;7.32;6.50;;;;;;;;;;5074947;28;20240;-68
2023/04/18 00:19:23;;;;;;;7.63;6.80;;;;;;;;;;5074745;28;20216;-68
2023/04/18 00:21:51;;;;;;;7.97;7.00;;;;;;;;;;5074495;28;20201;-67
2023/04/18 00:24:19;;;;;;;8.52;7.70;;;;;;;;;;5074247;28;20910;-67
2023/04/18 00:26:47;;;;;;;7.85;6.80;;;;;;;;;;5073939;28;20197;-69
2023/04/18 00:29:14;;;;;;;9.75;7.05;;;;;;;;;;5073496;28;20204;-67
2023/04/18 00:31:43;;;;;;;8.98;8.02;;;;;;;;;;5074326;28;20263;-69
2023/04/18 00:34:10;;;;;;;7.40;6.65;;;;;;;;;;5074371;28;20557;-67
2023/04/18 00:36:38;;;;;;;9.57;7.40;;;;;;;;;;5073832;28;20220;-69
2023/04/18 00:39:05;;;;;;;6.75;5.93;;;;;;;;;;5073910;28;20288;-67
2023/04/18 00:41:32;;;;;;;6.85;6.22;;;;;;;;;;5073863;28;20286;-67
2023/04/18 00:43:59;;;;;;;6.93;6.22;;;;;;;;;;5073741;28;20222;-66
2023/04/18 00:46:27;;;;;;;7.00;6.25;;;;;;;;;;5073880;28;20201;-66
2023/04/18 00:48:55;;;;;;;8.60;7.40;;;;;;;;;;5073808;28;20197;-66
2023/04/18 00:51:22;;;;;;;7.88;7.18;;;;;;;;;;5073688;28;20549;-67
2023/04/18 00:53:50;;;;;;;13.48;6.30;;;;;;;;;;5073410;28;20205;-66
2023/04/18 00:56:17;;;;;;;10.15;6.68;;;;;;;;;;5073623;28;20566;-67
2023/04/18 00:58:44;;;;;;;7.65;6.97;;;;;;;;;;5073310;28;20201;-66
2023/04/18 01:01:12;;;;;;;7.78;6.25;;;;;;;;;;5073212;28;20198;-67
2023/04/18 01:03:39;;;;;;;7.57;6.75;;;;;;;;;;5072770;28;20717;-66
2023/04/18 01:06:08;;;;;;;7.10;6.45;;;;;;;;;;5073450;28;20198;-66
2023/04/18 01:08:35;;;;;;;6.15;5.57;;;;;;;;;;5073218;28;20259;-67
2023/04/18 01:11:02;;;;;;;7.20;6.47;;;;;;;;;;5073392;28;20213;-67
2023/04/18 01:13:29;;;;;;;7.75;6.95;;;;;;;;;;5073532;28;20202;-67
2023/04/18 01:15:57;;;;;;;8.10;7.30;;;;;;;;;;5073412;28;20197;-66
2023/04/18 01:18:26;;;;;;;8.27;6.78;;;;;;;;;;5073600;28;20597;-66
2023/04/18 01:20:55;;;;;;;7.43;6.65;;;;;;;;;;5072993;28;20194;-67
2023/04/18 01:23:24;;;;;;;8.63;7.40;;;;;;;;;;5073015;28;20211;-67
2023/04/18 01:25:53;;;;;;;7.28;6.57;;;;;;;;;;5073423;28;20194;-67
2023/04/18 01:28:21;;;;;;;8.48;6.47;;;;;;;;;;5073374;28;20205;-66
2023/04/18 01:30:48;;;;;;;7.75;6.55;;;;;;;;;;5072940;28;20194;-66
2023/04/18 01:33:15;;;;;;;8.18;6.55;;;;;;;;;;5073128;28;20200;-68
2023/04/18 01:35:43;;;;;;;8.75;7.15;;;;;;;;;;5073470;28;20285;-67
2023/04/18 01:38:10;;;;;;;7.20;6.47;;;;;;;;;;5073444;28;20207;-67
2023/04/18 01:40:37;;;;;;;9.07;7.32;;;;;;;;;;5076727;28;20205;-67
2023/04/18 01:43:06;;;;;;;8.43;6.85;;;;;;;;;;5077542;28;20218;-67
2023/04/18 01:45:33;;;;;;;9.60;6.97;;;;;;;;;;5076781;28;20194;-67
2023/04/18 01:48:00;;;;;;;7.25;6.55;;;;;;;;;;5077709;28;20197;-67
2023/04/18 01:50:27;;;;;;;8.30;6.65;;;;;;;;;;5077570;28;20201;-67
2023/04/18 01:52:54;;;;;;;7.25;6.47;;;;;;;;;;5077071;28;20200;-67
2023/04/18 01:55:21;;;;;;;8.60;7.03;;;;;;;;;;5076729;28;20655;-67
2023/04/18 01:57:49;;;;;;;7.40;6.70;;;;;;;;;;5076916;28;20277;-67
2023/04/18 02:00:18;;;;;;;7.97;7.10;;;;;;;;;;5076629;28;20194;-67
2023/04/18 02:02:45;;;;;;;7.57;6.85;;;;;;;;;;5076075;28;20227;-67
2023/04/18 02:05:13;;;;;;;8.32;6.90;;;;;;;;;;5076923;28;20683;-67
2023/04/18 02:07:41;;;;;;;8.70;6.70;;;;;;;;;;5076739;28;20473;-67
2023/04/18 02:10:09;;;;;;;11.70;7.05;;;;;;;;;;5076349;28;20721;-68
2023/04/18 02:12:36;;;;;;;7.60;6.47;;;;;;;;;;5076383;28;20200;-66
2023/04/18 02:15:03;;;;;;;6.88;6.18;;;;;;;;;;5076665;28;20641;-67
2023/04/18 02:17:32;;;;;;;6.57;5.85;;;;;;;;;;5076922;28;20194;-67
2023/04/18 02:19:59;;;;;;;8.40;7.55;;;;;;;;;;5076209;28;20208;-67
2023/04/18 02:22:26;;;;;;;7.88;6.65;;;;;;;;;;5076000;28;20204;-67
2023/04/18 02:24:53;;;;;;;7.63;6.82;;;;;;;;;;5076105;28;20205;-66
2023/04/18 02:27:21;;;;;;;7.82;7.07;;;;;;;;;;5076011;28;20201;-68
2023/04/18 02:29:48;;;;;;;7.63;6.93;;;;;;;;;;5076609;28;20555;-66
2023/04/18 02:32:15;;;;;;;7.55;6.63;;;;;;;;;;5076381;28;20197;-67
2023/04/18 02:34:43;;;;;;;8.30;6.70;;;;;;;;;;5076188;28;20193;-67
2023/04/18 02:37:11;;;;;;;7.45;6.65;;;;;;;;;;5076155;28;20529;-67
2023/04/18 02:39:38;;;;;;;7.45;6.55;;;;;;;;;;5075953;28;20202;-67
2023/04/18 02:42:05;;;;;;;7.45;6.65;;;;;;;;;;5075771;28;20198;-66
2023/04/18 02:44:32;;;;;;;6.93;6.22;;;;;;;;;;5075737;28;20218;-66
2023/04/18 02:47:00;;;;;;;8.30;7.28;;;;;;;;;;5075600;28;20202;-67
2023/04/18 02:49:27;;;;;;;6.83;6.20;;;;;;;;;;5076050;28;20194;-66
2023/04/18 02:51:56;;;;;;;7.97;6.88;;;;;;;;;;5074829;28;20531;-66
2023/04/18 02:54:23;;;;;;;7.85;6.80;;;;;;;;;;5076056;28;20685;-68
2023/04/18 02:56:50;;;;;;;6.50;5.88;;;;;;;;;;5076109;28;20191;-66
2023/04/18 02:59:17;;;;;;;7.82;6.47;;;;;;;;;;5075572;28;20205;-67
2023/04/18 03:01:45;;;;;;;5.93;5.32;;;;;;;;;;5075869;28;20661;-70
2023/04/18 03:04:12;;;;;;;6.95;6.03;;;;;;;;;;5075759;28;20240;-67
2023/04/18 03:06:40;;;;;;;7.57;6.82;;;;;;;;;;5075313;28;20206;-67
2023/04/18 03:09:08;;;;;;;7.15;6.00;;;;;;;;;;5075286;28;20194;-67
2023/04/18 03:11:36;;;;;;;8.07;6.55;;;;;;;;;;5075605;28;20203;-67
2023/04/18 03:14:03;;;;;;;7.10;6.05;;;;;;;;;;5075337;28;20662;-66
2023/04/18 03:16:31;;;;;;;9.20;7.13;;;;;;;;;;5075578;28;20648;-67
2023/04/18 03:18:58;;;;;;;6.22;5.60;;;;;;;;;;5075702;28;20651;-66
2023/04/18 03:21:25;;;;;;;8.00;7.22;;;;;;;;;;5076035;28;20200;-66
2023/04/18 03:23:52;;;;;;;7.47;6.70;;;;;;;;;;5075188;28;20229;-66
2023/04/18 03:26:21;;;;;;;9.25;6.85;;;;;;;;;;5075032;28;20198;-66
2023/04/18 03:28:48;;;;;;;7.63;6.80;;;;;;;;;;5074928;28;20190;-67
2023/04/18 03:31:15;;;;;;;8.05;7.22;;;;;;;;;;5075321;28;20197;-68
2023/04/18 03:33:44;;;;;;;9.10;6.95;;;;;;;;;;5075261;28;20198;-68
2023/04/18 03:36:13;;;;;;;8.18;6.85;;;;;;;;;;5075139;28;20555;-67
2023/04/18 03:38:42;;;;;;;9.07;7.25;;;;;;;;;;5074641;28;20198;-66
2023/04/18 03:41:09;;;;;;;7.97;6.82;;;;;;;;;;5075014;28;20202;-66
2023/04/18 03:43:38;;;;;;;8.80;7.45;;;;;;;;;;5074542;28;20691;-67
2023/04/18 03:46:05;;;;;;;7.50;6.73;;;;;;;;;;5074924;28;20194;-67
2023/04/18 03:48:34;;;;;;;7.65;6.85;;;;;;;;;;5074468;28;20449;-67
2023/04/18 03:51:01;;;;;;;8.45;7.07;;;;;;;;;;5074850;28;20190;-67
2023/04/18 03:53:29;;;;;;;9.82;6.57;;;;;;;;;;5074413;28;20201;-67
2023/04/18 03:55:56;;;;;;;7.93;6.55;;;;;;;;;;5074381;28;20296;-66
2023/04/18 03:58:23;;;;;;;7.20;6.43;;;;;;;;;;5089878;28;20272;-67
2023/04/18 04:00:52;;;;;;;10.18;7.43;;;;;;;;;;5094096;28;20213;-67
2023/04/18 04:03:20;;;;;;;8.20;7.30;;;;;;;;;;5094821;28;20284;-66
2023/04/18 04:05:47;;;;;;;9.00;7.22;;;;;;;;;;5094968;28;20559;-66
2023/04/18 04:08:15;;;;;;;8.60;7.05;;;;;;;;;;5094442;28;20220;-65
2023/04/18 04:10:42;;;;;;;7.70;7.00;;;;;;;;;;5094418;28;20677;-66
2023/04/18 04:13:09;;;;;;;7.65;6.93;;;;;;;;;;5094145;28;20209;-66
2023/04/18 04:15:37;;;;;;;7.43;6.63;;;;;;;;;;5094313;28;20194;-66
2023/04/18 04:18:06;;;;;;;8.32;7.38;;;;;;;;;;5094633;28;20193;-66
2023/04/18 04:20:33;;;;;;;8.68;7.45;;;;;;;;;;5094158;28;20199;-66
2023/04/18 04:23:00;;;;;;;10.57;8.55;;;;;;;;;;5094564;28;20635;-66
2023/04/18 04:25:28;;;;;;;7.97;6.68;;;;;;;;;;5094098;28;20205;-66
2023/04/18 04:27:55;;;;;;;8.63;7.65;;;;;;;;;;5093638;28;20292;-66
2023/04/18 04:30:23;;;;;;;10.32;7.25;;;;;;;;;;5094618;28;20204;-66
2023/04/18 04:32:50;;;;;;;13.20;8.05;;;;;;;;;;5094128;28;20197;-66
2023/04/18 04:35:19;;;;;;;11.63;8.13;;;;;;;;;;5093841;28;20651;-66
2023/04/18 04:37:46;;;;;;;9.05;7.07;;;;;;;;;;5094172;28;20203;-67
2023/04/18 04:40:14;;;;;;;9.95;8.55;;;;;;;;;;5094181;28;20196;-66
2023/04/18 04:42:41;;;;;;;9.75;8.38;;;;;;;;;;5094005;28;20193;-70
2023/04/18 04:45:09;;;;;;;16.35;10.02;;;;;;;;;;5094015;28;20255;-78
2023/04/18 04:47:36;;;;;;;11.10;9.90;;;;;;;;;;5093824;28;20192;-67
2023/04/18 04:50:06;;;;;;;9.13;7.95;;;;;;;;;;5093979;28;20208;-68
2023/04/18 04:52:34;;;;;;;9.45;7.95;;;;;;;;;;5094635;28;20242;-68
2023/04/18 04:55:02;;;;;;;8.20;7.35;;;;;;;;;;5093848;28;20608;-68
2023/04/18 04:57:29;;;;;;;10.10;7.68;;;;;;;;;;5093778;28;20281;-68
2023/04/18 04:59:56;;;;;;;11.23;8.00;;;;;;;;;;5093775;28;20192;-68
2023/04/18 05:02:23;;;;;;;9.52;8.57;;;;;;;;;;5093658;28;20192;-68
2023/04/18 05:04:51;;;;;;;9.60;8.70;;;;;;;;;;5093827;28;20233;-67
2023/04/18 05:07:18;;;;;;;9.90;8.90;;;;;;;;;;5093204;28;20193;-68
2023/04/18 05:09:46;;;;;;;10.48;9.07;;;;;;;;;;5093293;28;20206;-68
2023/04/18 05:12:13;;;;;;;13.25;8.07;;;;;;;;;;5093323;28;20250;-68
2023/04/18 05:14:41;;;;;;;9.20;8.30;;;;;;;;;;5092917;28;20674;-68
2023/04/18 05:17:08;;;;;;;9.90;8.60;;;;;;;;;;5094054;28;20287;-68
2023/04/18 05:19:35;;;;;;;12.43;9.43;;;;;;;;;;5093592;28;20194;-68
2023/04/18 05:22:02;;;;;;;9.15;7.40;;;;;;;;;;5093560;28;20289;-67
2023/04/18 05:24:31;;;;;;;15.35;9.38;;;;;;;;;;5092964;28;20307;-68
2023/04/18 05:27:00;;;;;;;11.82;9.30;;;;;;;;;;5093363;28;20586;-68
2023/04/18 05:29:27;;;;;;;9.32;8.35;;;;;;;;;;5093355;28;20216;-69
2023/04/18 05:31:54;;;;;;;9.65;8.60;;;;;;;;;;5093985;28;20288;-68
2023/04/18 05:34:22;;;;;;;9.45;8.05;;;;;;;;;;5092889;28;20193;-68
2023/04/18 05:36:49;;;;;;;13.18;8.68;;;;;;;;;;5093243;28;20200;-68
2023/04/18 05:39:16;;;;;;;13.85;10.38;;;;;;;;;;5093414;28;20548;-68
2023/04/18 05:41:43;;;;;;;10.95;9.00;;;;;;;;;;5093008;28;20193;-68
2023/04/18 05:44:12;;;;;;;13.13;9.68;;;;;;;;;;5092899;28;20223;-67
2023/04/18 05:46:39;;;;;;;11.15;9.52;;;;;;;;;;5093337;28;20576;-68
2023/04/18 05:49:06;;;;;;;11.73;9.43;;;;;;;;;;5093237;28;20198;-68
2023/04/18 05:51:33;;;;;;;12.88;10.43;;;;;;;;;;5093519;28;20197;-68
2023/04/18 05:54:01;;;;;;;14.38;9.57;;;;;;;;;;5093194;28;20236;-67
2023/04/18 05:56:28;;;;;;;23.00;16.13;;;;;;;;;;5093257;28;20200;-67
2023/04/18 05:58:55;;;;;;;12.63;9.95;;;;;;;;;;5092853;28;20197;-67
2023/04/18 06:01:24;;;;;;;12.65;8.85;;;;;;;;;;5092846;28;20197;-67
2023/04/18 06:03:51;;;;;;;13.48;9.90;;;;;;;;;;5092903;28;20324;-68
2023/04/18 06:06:18;;;;;;;12.63;10.87;;;;;;;;;;5093162;28;20194;-67
2023/04/18 06:08:45;;;;;;;10.73;9.63;;;;;;;;;;5093004;28;20441;-69
2023/04/18 06:11:13;;;;;;;13.00;9.77;;;;;;;;;;5092735;28;20505;-68
2023/04/18 06:13:46;;;;;;;11.27;9.52;;;;;;;;;;5092692;28;20195;-68
2023/04/18 06:16:14;;;;;;;10.55;9.45;;;;;;;;;;5093025;28;20204;-68
2023/04/18 06:18:42;;;;;;;11.95;10.45;;;;;;;;;;5093128;28;20225;-68
2023/04/18 06:21:09;;;;;;;17.05;9.57;;;;;;;;;;5092684;28;20677;-68
2023/04/18 06:23:37;;;;;;;12.88;10.18;;;;;;;;;;5092586;28;20655;-68
2023/04/18 06:26:04;;;;;;;12.77;9.38;;;;;;;;;;5094078;28;20198;-68
2023/04/18 06:28:32;;;;;;;18.25;10.85;;;;;;;;;;5096368;28;20205;-68
2023/04/18 06:30:59;;;;;;;12.30;9.82;;;;;;;;;;5096555;28;20200;-68
2023/04/18 06:33:26;;;;;;;13.80;10.03;;;;;;;;;;5096523;28;20199;-68
2023/04/18 06:35:54;;;;;;;12.35;10.20;;;;;;;;;;5096081;28;20451;-68
2023/04/18 06:38:22;;;;;;;12.95;8.70;;;;;;;;;;5096367;28;20193;-68
2023/04/18 06:40:49;;;;;;;12.45;9.50;;;;;;;;;;5096351;28;20193;-67
2023/04/18 06:43:16;;;;;;;13.00;10.57;;;;;;;;;;5097225;28;20201;-67
2023/04/18 06:45:43;;;;;;;14.57;10.65;;;;;;;;;;5096167;28;20485;-67
2023/04/18 06:48:10;;;;;;;13.77;10.18;;;;;;;;;;5095879;28;20203;-67
2023/04/18 06:50:38;;;;;;;12.55;9.30;;;;;;;;;;5095931;28;20556;-68
2023/04/18 06:53:06;;;;;;;13.30;10.07;;;;;;;;;;5096272;28;20300;-67
2023/04/18 06:55:34;;;;;;;12.52;10.43;;;;;;;;;;5095795;28;20205;-68
2023/04/18 06:58:01;;;;;;;10.90;9.80;;;;;;;;;;5096055;28;20196;-67
2023/04/18 07:00:28;;;;;;;13.43;10.82;;;;;;;;;;5095663;28;20203;-67
2023/04/18 07:02:55;;;;;;;12.75;9.93;;;;;;;;;;5095431;28;20229;-67
2023/04/18 07:05:22;;;;;;;13.25;10.52;;;;;;;;;;5095503;28;20227;-67
2023/04/18 07:07:50;;;;;;;13.18;11.13;;;;;;;;;;5095880;28;20193;-67
2023/04/18 07:10:18;;;;;;;13.07;10.00;;;;;;;;;;5095799;28;20201;-68
2023/04/18 07:12:46;;;;;;;11.07;9.85;;;;;;;;;;5095767;28;20439;-68
2023/04/18 07:15:13;;;;;;;13.73;9.77;;;;;;;;;;5095333;28;20208;-67
2023/04/18 07:17:40;;;;;;;14.15;10.57;;;;;;;;;;5095662;28;20512;-67
2023/04/18 07:20:08;;;;;;;13.50;10.77;;;;;;;;;;5095681;28;20288;-67
2023/04/18 07:22:35;;;;;;;16.60;10.50;;;;;;;;;;5095623;28;20285;-67
2023/04/18 07:25:02;;;;;;;13.18;10.38;;;;;;;;;;5095000;28;20209;-67
2023/04/18 07:27:31;;;;;;;13.30;11.90;;;;;;;;;;5095661;28;20280;-67
2023/04/18 07:29:58;;;;;;;12.07;10.20;;;;;;;;;;5095142;28;20228;-68
2023/04/18 07:32:25;;;;;;;13.13;10.02;;;;;;;;;;5095256;28;20669;-68
2023/04/18 07:34:53;;;;;;;16.13;9.33;;;;;;;;;;5095283;28;20286;-67
2023/04/18 07:37:20;;;;;;;18.07;10.10;;;;;;;;;;5094717;28;20815;-67
2023/04/18 07:39:48;;;;;;;13.68;10.70;;;;;;;;;;5095171;28;20444;-67
2023/04/18 07:42:15;;;;;;;16.00;10.07;;;;;;;;;;5094952;28;20197;-67
2023/04/18 07:44:44;;;;;;;13.60;10.13;;;;;;;;;;5094963;28;20467;-67
2023/04/18 07:47:11;;;;;;;11.85;10.07;;;;;;;;;;5094613;28;20292;-68
2023/04/18 07:49:39;;;;;;;12.65;11.00;;;;;;;;;;5094881;28;20193;-67
2023/04/18 07:52:06;;;;;;;11.82;10.57;;;;;;;;;;5094614;28;20193;-67
2023/04/18 07:54:33;;;;;;;13.60;11.35;;;;;;;;;;5095250;28;20198;-67
2023/04/18 07:57:00;;;;;;;12.77;10.60;;;;;;;;;;5094806;28;20288;-67
2023/04/18 07:59:27;;;;;;;14.87;9.60;;;;;;;;;;5094961;28;20197;-67
2023/04/18 08:01:56;;;;;;;13.70;10.17;;;;;;;;;;5094359;28;20450;-67
2023/04/18 08:04:24;;;;;;;11.75;10.00;;;;;;;;;;5094856;28;20554;-68
2023/04/18 08:06:51;;;;;;;15.10;11.68;;;;;;;;;;5094648;28;20199;-69
2023/04/18 08:09:19;;;;;;;11.82;10.57;;;;;;;;;;5094706;28;20190;-68
2023/04/18 08:11:46;;;;;;;13.35;10.25;;;;;;;;;;5094213;28;20250;-69
2023/04/18 08:14:14;;;;;;;12.70;11.40;;;;;;;;;;5094615;28;20200;-68
2023/04/18 08:16:41;;;;;;;14.43;10.75;;;;;;;;;;5094161;28;20439;-68
2023/04/18 08:19:10;;;;;;;15.30;11.90;;;;;;;;;;5094516;28;20673;-68
2023/04/18 08:21:38;;;;;;;13.97;12.30;;;;;;;;;;5094322;28;20189;-69
2023/04/18 08:24:05;;;;;;;15.45;12.68;;;;;;;;;;5093879;28;20483;-68
2023/04/18 08:26:32;;;;;;;13.30;11.77;;;;;;;;;;5094045;28;20222;-68
2023/04/18 08:28:59;;;;;;;19.17;12.53;;;;;;;;;;5094292;28;20201;-69
2023/04/18 08:31:26;;;;;;;17.50;13.68;;;;;;;;;;5093684;28;20439;-68
2023/04/18 08:33:54;;;;;;;15.13;12.20;;;;;;;;;;5093576;28;20203;-68
2023/04/18 08:36:23;;;;;;;14.68;12.07;;;;;;;;;;5093729;28;20204;-68
2023/04/18 08:38:50;;;;;;;20.17;12.85;;;;;;;;;;5093735;28;20193;-69
2023/04/18 08:41:21;;;;;;;16.92;13.02;;;;;;;;;;5094224;28;20552;-68
2023/04/18 08:43:48;;;;;;;20.20;13.18;;;;;;;;;;5094082;28;20193;-68
2023/04/18 08:46:16;;;;;;;16.45;12.55;;;;;;;;;;5093545;28;20228;-68
2023/04/18 08:48:43;;;;;;;19.33;13.93;;;;;;;;;;5093615;28;20193;-68
2023/04/18 08:51:10;;;;;;;18.13;13.00;;;;;;;;;;5093930;28;20196;-68
2023/04/18 08:53:40;;;;;;;16.58;13.55;;;;;;;;;;5093633;28;20189;-68
2023/04/18 08:56:09;;;;;;;16.15;13.63;;;;;;;;;;5093519;28;20185;-68
2023/04/18 08:58:36;;;;;;;20.03;12.70;;;;;;;;;;5093826;28;20193;-68
2023/04/18 09:01:03;;;;;;;16.27;12.93;;;;;;;;;;5093736;28;20436;-69
2023/04/18 09:03:36;;;;;;;16.07;11.90;;;;;;;;;;5093936;28;20569;-68
2023/04/18 09:06:08;;;;;;;16.98;12.55;;;;;;;;;;5093357;28;20971;-67
2023/04/18 09:08:35;;;;;;;17.13;13.27;;;;;;;;;;5094122;28;20204;-69
2023/04/18 09:11:19;;;;;;;16.90;13.03;;;;;;;;;;5093638;28;20194;-68
2023/04/18 09:13:47;;;;;;;18.80;13.50;;;;;;;;;;5093878;28;20423;-68
2023/04/18 09:16:14;;;;;;;20.10;14.18;;;;;;;;;;5093235;28;20454;-69
2023/04/18 09:18:42;;;;;;;20.53;16.00;;;;;;;;;;5093670;28;20285;-68
2023/04/18 09:21:19;;;;;;;20.60;14.00;;;;;;;;;;5093522;28;20465;-68
2023/04/18 09:23:46;;;;;;;16.17;12.83;;;;;;;;;;5093517;28;20481;-68
2023/04/18 09:26:14;;;;;;;20.13;13.90;;;;;;;;;;5093492;28;20479;-68
2023/04/18 09:28:41;;;;;;;19.33;13.30;;;;;;;;;;5093393;28;20454;-68
2023/04/18 09:31:11;;;;;;;17.50;14.17;;;;;;;;;;5093674;28;20440;-68
2023/04/18 09:33:41;;;;;;;16.47;12.57;;;;;;;;;;5093976;28;20770;-69
2023/04/18 09:36:18;;;;;;;16.17;13.33;;;;;;;;;;5094279;28;20526;-68
2023/04/18 09:38:46;;;;;;;15.90;12.90;;;;;;;;;;5093475;28;20443;-68
2023/04/18 09:41:14;;;;;;;16.00;14.37;;;;;;;;;;5092983;28;20952;-69
2023/04/18 09:43:41;;;;;;;16.53;14.87;;;;;;;;;;5093285;28;20497;-68
2023/04/18 09:46:11;;;;;;;15.20;13.50;;;;;;;;;;5093300;28;20533;-68
2023/04/18 09:48:38;;;;;;;22.93;14.00;;;;;;;;;;5093197;28;20442;-69
2023/04/18 09:51:06;;;;;;;17.83;14.00;;;;;;;;;;5093310;28;20449;-68
2023/04/18 09:53:34;;;;;;;16.77;13.50;;;;;;;;;;5092857;28;20439;-68
2023/04/18 09:56:02;;;;;;;17.67;14.40;;;;;;;;;;5093389;28;20530;-68
2023/04/18 09:58:32;;;;;;;17.80;14.43;;;;;;;;;;5093198;28;20440;-68
2023/04/18 10:01:00;;;;;;;17.53;14.10;;;;;;;;;;5096012;28;20435;-68
2023/04/18 10:03:34;;;;;;;19.93;15.40;;;;;;;;;;5096682;28;21005;-68
2023/04/18 10:06:01;;;;;;;21.83;15.33;;;;;;;;;;5097312;28;20825;-68
2023/04/18 10:08:29;;;;;;;18.53;14.40;;;;;;;;;;5096906;28;20476;-68
2023/04/18 10:10:57;;;;;;;19.03;15.07;;;;;;;;;;5096937;28;20863;-68
2023/04/18 10:13:25;;;;;;;17.77;15.00;;;;;;;;;;5096834;28;20530;-68
2023/04/18 10:15:53;;;;;;;21.17;17.47;;;;;;;;;;5096842;28;20862;-68
2023/04/18 10:18:23;;;;;;;19.73;16.20;;;;;;;;;;5096730;28;20451;-68
2023/04/18 10:20:57;;;;;;;20.87;17.00;;;;;;;;;;5096473;28;20451;-68
2023/04/18 10:23:35;;;;;;;19.83;15.63;;;;;;;;;;5096874;28;20427;-68
2023/04/18 10:26:02;;;;;;;18.33;16.07;;;;;;;;;;5096573;28;20463;-68
2023/04/18 10:28:49;;;;;;;19.63;15.43;;;;;;;;;;5096233;28;20444;-68
2023/04/18 10:31:17;;;;;;;21.63;16.80;;;;;;;;;;5096310;28;20515;-68
2023/04/18 10:33:48;;;;;;;21.27;16.13;;;;;;;;;;5096381;28;20469;-68
2023/04/18 10:36:19;;;;;;;20.20;18.17;;;;;;;;;;5096658;28;20435;-68
2023/04/18 10:38:51;;;;;;;19.33;15.13;;;;;;;;;;5096047;28;20428;-68
2023/04/18 10:41:20;;;;;;;18.50;15.90;;;;;;;;;;5096078;28;20509;-68
2023/04/18 10:44:06;;;;;;;22.17;17.57;;;;;;;;;;5095907;28;20438;-68
2023/04/18 10:46:33;;;;;;;18.50;15.80;;;;;;;;;;5096155;28;20475;-68
2023/04/18 10:49:16;;;;;;;18.80;16.00;;;;;;;;;;5096281;28;20445;-69
2023/04/18 10:51:44;;;;;;;18.63;16.57;;;;;;;;;;5096140;28;20445;-68
2023/04/18 10:54:12;;;;;;;20.67;16.93;;;;;;;;;;5096085;28;20489;-68
2023/04/18 10:56:40;;;;;;;20.43;15.93;;;;;;;;;;5096159;28;20436;-68
2023/04/18 10:59:08;;;;;;;22.30;17.63;;;;;;;;;;5095647;28;20444;-69
2023/04/18 11:01:38;;;;;;;20.10;17.30;;;;;;;;;;5096433;28;20441;-69
2023/04/18 11:04:12;;;;;;;20.23;16.77;;;;;;;;;;5095221;28;20472;-68
2023/04/18 11:06:49;;;;;;;19.07;16.63;;;;;;;;;;5095520;28;20472;-69
2023/04/18 11:09:16;;;;;;;21.27;16.00;;;;;;;;;;5095797;28;20784;-69
2023/04/18 11:11:44;;;;;;;19.93;17.93;;;;;;;;;;5095023;28;20456;-69
2023/04/18 11:14:11;;;;;;;20.57;16.73;;;;;;;;;;5095369;28;20957;-68
2023/04/18 11:16:38;;;;;;;22.83;17.30;;;;;;;;;;5095742;28;20797;-68
2023/04/18 11:19:20;;;;;;;20.80;16.60;;;;;;;;;;5095604;28;20436;-68
2023/04/18 11:21:49;;;;;;;19.97;15.80;;;;;;;;;;5093523;28;20550;-68
2023/04/18 11:24:26;;;;;;;20.03;16.47;;;;;;;;;;5095499;28;20884;-69
2023/04/18 11:26:54;;;;;;;18.93;15.87;;;;;;;;;;5095646;28;20481;-69
2023/04/18 11:29:22;;;;;;;18.40;15.60;;;;;;;;;;5095364;28;20432;-68
2023/04/18 11:31:52;;;;;;;18.77;16.43;;;;;;;;;;5096002;28;20440;-69
2023/04/18 11:34:20;;;;;;;20.00;17.60;;;;;;;;;;5095242;28;20448;-68
2023/04/18 11:36:52;;;;;;;18.70;15.70;;;;;;;;;;5094934;28;20957;-68
2023/04/18 11:39:20;;;;;;;19.00;15.73;;;;;;;;;;5095248;28;20534;-68
2023/04/18 11:41:49;;;;;;;17.73;15.83;;;;;;;;;;5094876;28;20943;-69
2023/04/18 11:44:17;;;;;;;18.00;15.83;;;;;;;;;;5094768;28;20503;-69
2023/04/18 11:46:44;;;;;;;18.00;15.63;;;;;;;;;;5095002;28;20481;-68
2023/04/18 11:49:25;;;;;;;18.67;16.57;;;;;;;;;;5094625;28;20533;-68
2023/04/18 11:51:53;;;;;;;20.50;17.30;;;;;;;;;;5095263;28;20936;-68
2023/04/18 11:54:36;;;;;;;18.07;16.17;;;;;;;;;;5095384;28;20439;-68
2023/04/18 11:57:03;;;;;;;18.03;16.13;;;;;;;;;;5095155;28;20445;-68
2023/04/18 11:59:31;;;;;;;22.23;14.93;;;;;;;;;;5094828;28;20442;-69
2023/04/18 12:02:01;;;;;;;19.37;16.60;;;;;;;;;;5094721;28;20438;-69
2023/04/18 12:04:28;;;;;;;17.13;15.33;;;;;;;;;;5094171;28;20469;-68
2023/04/18 12:06:57;;;;;;;16.67;14.73;;;;;;;;;;5094161;28;20975;-69
2023/04/18 12:09:25;;;;;;;16.90;15.00;;;;;;;;;;5094229;28;20514;-68
2023/04/18 12:11:59;;;;;;;17.53;15.73;;;;;;;;;;5094587;28;20560;-68
2023/04/18 12:14:27;;;;;;;16.30;13.60;;;;;;;;;;5094411;28;20469;-68
2023/04/18 12:16:54;;;;;;;18.23;15.37;;;;;;;;;;5094324;28;20446;-69
2023/04/18 12:19:21;;;;;;;16.77;15.00;;;;;;;;;;5094813;28;20529;-68
2023/04/18 12:21:55;;;;;;;17.67;15.00;;;;;;;;;;5094503;28;20445;-68
2023/04/18 12:24:25;;;;;;;17.80;14.93;;;;;;;;;;5093727;28;20454;-68
2023/04/18 12:26:52;;;;;;;21.93;15.23;;;;;;;;;;5094005;28;20501;-68
2023/04/18 12:29:20;;;;;;;17.23;14.73;;;;;;;;;;5094287;28;20450;-68
2023/04/18 12:31:47;;;;;;;16.80;14.50;;;;;;;;;;5093966;28;20437;-68
2023/04/18 12:34:14;;;;;;;16.57;14.63;;;;;;;;;;5093774;28;20442;-68
2023/04/18 12:36:41;;;;;;;15.33;13.83;;;;;;;;;;5094382;28;20442;-68
2023/04/18 12:39:09;;;;;;;17.33;15.20;;;;;;;;;;5094204;28;20446;-68
2023/04/18 12:41:37;;;;;;;15.90;14.20;;;;;;;;;;5094863;28;20445;-68
2023/04/18 12:44:05;;;;;;;16.73;14.23;;;;;;;;;;5093988;28;20803;-68
2023/04/18 12:46:32;;;;;;;16.30;14.67;;;;;;;;;;5094338;28;20478;-68
2023/04/18 12:49:00;;;;;;;20.30;14.10;;;;;;;;;;5093862;28;20458;-68
2023/04/18 12:51:28;;;;;;;19.23;16.47;;;;;;;;;;5093545;28;20508;-79
2023/04/18 12:53:55;;;;;;;14.87;13.33;;;;;;;;;;5093907;28;20442;-68
2023/04/18 12:56:22;;;;;;;16.20;14.50;;;;;;;;;;5093713;28;20453;-68
2023/04/18 12:58:51;;;;;;;16.00;14.30;;;;;;;;;;5093815;28;20533;-68
2023/04/18 13:01:18;;;;;;;16.23;14.20;;;;;;;;;;5093415;28;20954;-68
2023/04/18 13:03:45;;;;;;;16.13;14.20;;;;;;;;;;5093147;28;21024;-68
2023/04/18 13:06:13;;;;;;;14.67;13.20;;;;;;;;;;5093636;28;20563;-68
2023/04/18 13:08:40;;;;;;;16.10;14.50;;;;;;;;;;5093752;28;20436;-68
2023/04/18 13:11:07;;;;;;;16.77;15.13;;;;;;;;;;5093548;28;20477;-68
2023/04/18 13:13:34;;;;;;;19.50;12.70;;;;;;;;;;5077138;28;20446;-68
2023/04/18 13:16:03;;;;;;;15.83;14.03;;;;;;;;;;5079367;28;20518;-68
2023/04/18 13:18:30;;;;;;;15.53;13.50;;;;;;;;;;5074261;28;20444;-67
2023/04/18 13:20:57;;;;;;;14.87;13.13;;;;;;;;;;5072417;28;21007;-68
2023/04/18 13:23:24;;;;;;;14.87;13.33;;;;;;;;;;5072990;28;20805;-69
2023/04/18 13:25:51;;;;;;;14.33;12.90;;;;;;;;;;5072977;28;20438;-69
2023/04/18 13:28:19;;;;;;;14.07;12.57;;;;;;;;;;5073096;28;20444;-69
2023/04/18 13:30:46;;;;;;;18.03;13.23;;;;;;;;;;5072778;28;20443;-68
2023/04/18 13:33:14;;;;;;;17.37;14.17;;;;;;;;;;5073347;28;20807;-75
2023/04/18 13:35:42;;;;;;;14.03;12.53;;;;;;;;;;5075067;28;20488;-67
2023/04/18 13:38:09;;;;;;;20.50;13.90;;;;;;;;;;5076907;28;20447;-68
2023/04/18 13:40:37;;;;;;;13.80;12.40;;;;;;;;;;5077064;28;20451;-68
2023/04/18 13:43:05;;;;;;;15.73;12.90;;;;;;;;;;5077226;28;20447;-67
2023/04/18 13:45:32;;;;;;;16.67;13.00;;;;;;;;;;5076443;28;20445;-67
2023/04/18 13:47:59;;;;;;;14.40;12.90;;;;;;;;;;5076534;28;20980;-67
2023/04/18 13:50:28;;;;;;;15.40;13.80;;;;;;;;;;5076976;28;20464;-67
2023/04/18 13:52:55;;;;;;;20.17;12.27;;;;;;;;;;5077034;28;20443;-67
2023/04/18 13:55:23;;;;;;;13.63;12.23;;;;;;;;;;5076903;28;20439;-68
2023/04/18 13:57:50;;;;;;;17.47;11.53;;;;;;;;;;5076878;28;20542;-68
2023/04/18 14:00:18;;;;;;;13.40;11.63;;;;;;;;;;5076475;28;21002;-67
2023/04/18 14:02:45;;;;;;;14.00;12.00;;;;;;;;;;5076494;28;21013;-67
2023/04/18 14:05:12;;;;;;;12.80;11.50;;;;;;;;;;5076566;28;20436;-67
2023/04/18 14:07:41;;;;;;;12.37;11.27;;;;;;;;;;5076489;28;20489;-67
2023/04/18 14:10:08;;;;;;;11.83;10.53;;;;;;;;;;5076546;28;20447;-67
2023/04/18 14:12:37;;;;;;;11.97;10.60;;;;;;;;;;5076600;28;20448;-67
2023/04/18 14:15:04;;;;;;;11.47;9.83;;;;;;;;;;5076137;28;20462;-69
2023/04/18 14:17:32;;;;;;;11.87;10.63;;;;;;;;;;5096117;28;20449;-66
2023/04/18 14:19:59;;;;;;;11.60;10.30;;;;;;;;;;5096897;28;20447;-67
2023/04/18 14:22:26;;;;;;;12.10;10.90;;;;;;;;;;5096656;28;20433;-67
2023/04/18 14:24:55;;;;;;;10.30;9.30;;;;;;;;;;5096388;28;20518;-70
2023/04/18 14:27:24;;;;;;;13.40;12.00;;;;;;;;;;5096302;28;20604;-68
2023/04/18 14:29:51;;;;;;;11.63;10.47;;;;;;;;;;5096406;28;20440;-68
2023/04/18 14:32:18;;;;;;;11.10;10.00;;;;;;;;;;5096360;28;20526;-69